Airfield :
LOGIN :

Register | Disclaimer

   EN    FR    IT 

 










Legend :    VFR   Marginal VFR   IFR   Intensive IFR   Very Intensive IFR
Visi :
Ceiling :
>= 8 km
>= 3000ft
5 to 8 km
1000 to 3000 ft
1500m to 5 km
500 to 1000 ft
800 to 1500m
200 to 500 ft
< 800m
< 200 ft
Symbols :   Thunderstorms  Fog  Heavy snow  Heavy precipitations  Wind > 20 kt
SIGMETs :     Misc.  Thunderstorms  Icing  Turbulence  Mountain Waves  Volcanic Ashes






- Airport Elevation : 1910 ft
- IATA code : RDZ


LFCR - Rodez

CURRENT METAR :
  • 031430Z AUTO 33008KT 300V360 9999 ///TCU 17/13 Q1017 NOSIG

EXPIRED METARs :
  • 031400Z AUTO 32010KT 9999 FEW035/// SCT041/// BKN056/// ///CB 17/13 Q1017 NOSIG
  • 031330Z AUTO 32007KT 290V360 9999 FEW036/// BKN066/// OVC130/// ///TCU 18/15 Q1017 NOSIG
  • 031300Z AUTO 32008KT 300V360 9999 SCT028/// BKN040/// BKN070/// ///TCU 18/14 Q1017 NOSIG
  • 031230Z AUTO 34005KT 270V040 9999 BKN024/// BKN030/// OVC066/// ///TCU 19/14 Q1017 NOSIG

TAF TAF LFCR
Valid from the 03 at 12:00 until the 04 at 12:00 UTC


031100Z 0312/0412 29006KT 9999 SCT030 BKN045
PROB30
TEMPO 0313/0319 -SHRA SCT035TCU
BECMG 0319/0321 VRB03KT
BECMG 0401/0403 SCT007 BKN014
TEMPO 0403/0412 4000 RA BKN006
PROB30
TEMPO 0404/0408 2000 BKN003



MET'MAP, your aeronautical weather chart ! - Copyright ORBIFLY December 2007 - Disclaimer

ORBIFLY MET'MAP TEAM :

Programming & Development : Alexandra Zaïnal
Concept & original design : Baudouin d'Aumeries
Assistance for programming : Marc-Olivier Méhu
Technical & hardware support : Manuel Goepfert

Contact : metmap@orbifly.com




SOURCES & CREDITS :

   NOAA